Time;durP1;ratioP1;P1;durP2;ratioP2;P2;SDS_P1;SDS_P2;PMS_P1;PMS_P2;Temp;Humidity;BMP_temperature;BMP_pressure;BME280_temperature;BME280_humidity;BME280_pressure;Samples;Min_cycle;Max_cycle;Signal;HPM_P1;HPM_P2
2023/12/26 00:02:08;;;;;;;10.10;5.95;;;0.60;99.90;;;;;;5070625;28;20032;-82
2023/12/26 00:04:34;;;;;;;9.65;5.60;;;0.70;99.90;;;;;;5071125;28;20029;-82
2023/12/26 00:06:59;;;;;;;10.48;5.80;;;0.70;99.90;;;;;;5037366;28;20025;-82
2023/12/26 00:09:25;;;;;;;11.73;5.60;;;0.70;99.90;;;;;;5053721;28;20034;-82
2023/12/26 00:11:51;;;;;;;9.10;5.10;;;0.70;99.90;;;;;;5070397;28;20040;-82
2023/12/26 00:14:17;;;;;;;11.90;6.25;;;0.70;99.90;;;;;;5053562;28;20075;-82
2023/12/26 00:16:43;;;;;;;10.98;5.75;;;0.70;99.90;;;;;;5053495;28;20150;-82
2023/12/26 00:19:09;;;;;;;12.63;6.03;;;0.70;99.90;;;;;;5053519;28;20112;-82
2023/12/26 00:21:39;;;;;;;11.07;6.28;;;0.70;99.90;;;;;;5053710;28;20021;-82
2023/12/26 00:24:05;;;;;;;9.90;5.22;;;0.70;99.90;;;;;;5053650;28;20040;-82
2023/12/26 00:26:31;;;;;;;9.30;5.72;;;0.70;99.90;;;;;;5037072;28;20033;-82
2023/12/26 00:28:57;;;;;;;10.25;5.55;;;0.60;99.90;;;;;;5020179;28;20033;-83
2023/12/26 00:31:22;;;;;;;9.55;5.93;;;0.60;99.90;;;;;;5053231;28;20517;-82
2023/12/26 00:33:48;;;;;;;9.73;6.03;;;0.60;99.90;;;;;;5036934;28;20420;-82
2023/12/26 00:36:19;;;;;;;11.68;6.88;;;0.60;99.90;;;;;;5036894;28;20058;-82
2023/12/26 00:38:45;;;;;;;11.43;6.35;;;0.50;99.90;;;;;;5053263;28;20044;-82
2023/12/26 00:41:15;;;;;;;10.82;5.85;;;0.50;99.90;;;;;;5053379;28;20485;-82
2023/12/26 00:43:41;;;;;;;10.57;5.43;;;0.50;99.90;;;;;;5053307;28;20035;-82
2023/12/26 00:46:06;;;;;;;8.55;5.40;;;0.40;99.90;;;;;;5053219;28;20477;-81
2023/12/26 00:48:32;;;;;;;9.30;5.40;;;0.40;99.90;;;;;;5037265;28;20546;-82
2023/12/26 00:50:58;;;;;;;9.45;5.80;;;0.40;99.90;;;;;;5036753;28;20025;-81
2023/12/26 00:53:24;;;;;;;8.73;5.25;;;0.40;99.90;;;;;;5052930;28;20380;-82
2023/12/26 00:55:50;;;;;;;10.05;5.65;;;0.40;99.90;;;;;;5036862;28;20083;-81
2023/12/26 00:58:16;;;;;;;9.27;5.53;;;0.40;99.90;;;;;;5053155;28;20040;-81
2023/12/26 01:00:41;;;;;;;9.13;5.50;;;0.30;99.90;;;;;;5053099;28;20064;-82
2023/12/26 01:03:09;;;;;;;10.93;6.50;;;0.30;99.90;;;;;;5054346;28;20025;-81
2023/12/26 01:05:34;;;;;;;11.60;6.20;;;0.40;99.90;;;;;;5053511;28;20104;-81
2023/12/26 01:08:00;;;;;;;9.68;5.80;;;0.30;99.90;;;;;;5053992;28;20072;-81
2023/12/26 01:10:26;;;;;;;9.65;5.72;;;0.30;99.90;;;;;;5053194;28;20060;-81
2023/12/26 01:12:52;;;;;;;10.80;5.97;;;0.30;99.90;;;;;;5054122;28;20025;-81
2023/12/26 01:15:18;;;;;;;12.52;7.07;;;0.30;99.90;;;;;;5052788;28;20473;-81
2023/12/26 01:17:44;;;;;;;10.27;6.07;;;0.30;99.90;;;;;;5052614;28;20120;-81
2023/12/26 01:20:10;;;;;;;10.57;6.28;;;0.30;99.90;;;;;;5052747;28;20110;-81
2023/12/26 01:22:36;;;;;;;10.93;6.30;;;0.30;99.90;;;;;;5019587;28;20036;-81
2023/12/26 01:25:02;;;;;;;11.32;6.10;;;0.20;99.90;;;;;;5019820;28;20532;-81
2023/12/26 01:27:28;;;;;;;10.20;6.55;;;0.20;99.90;;;;;;5036051;28;20087;-81
2023/12/26 01:29:53;;;;;;;11.00;6.72;;;0.20;99.90;;;;;;5035924;28;20112;-81
2023/12/26 01:32:19;;;;;;;11.13;6.53;;;0.20;99.90;;;;;;5052698;28;20029;-81
2023/12/26 01:34:45;;;;;;;10.38;5.75;;;0.20;99.90;;;;;;5036133;28;20033;-81
2023/12/26 01:37:11;;;;;;;9.55;6.07;;;0.20;99.90;;;;;;5036109;28;20512;-81
2023/12/26 01:39:36;;;;;;;11.63;5.93;;;0.20;99.90;;;;;;5036071;28;20036;-81
2023/12/26 01:42:02;;;;;;;9.95;5.47;;;0.20;99.90;;;;;;5052656;28;20040;-81
2023/12/26 01:44:28;;;;;;;10.05;5.63;;;0.20;99.90;;;;;;5036405;28;20035;-81
2023/12/26 01:46:54;;;;;;;9.05;5.85;;;0.20;99.90;;;;;;5052708;28;20037;-81
2023/12/26 01:49:20;;;;;;;11.30;6.45;;;0.20;99.90;;;;;;5053727;28;20029;-82
2023/12/26 01:51:48;;;;;;;10.35;6.05;;;0.20;99.90;;;;;;5036950;28;20593;-82
2023/12/26 01:54:14;;;;;;;8.30;5.20;;;0.20;99.90;;;;;;5035583;28;20029;-82
2023/12/26 01:56:41;;;;;;;8.50;5.35;;;0.10;99.90;;;;;;5053164;28;20545;-82
2023/12/26 01:59:07;;;;;;;8.32;4.72;;;0.10;99.90;;;;;;5051759;28;20029;-82
2023/12/26 02:01:34;;;;;;;8.15;4.57;;;0.00;99.90;;;;;;5035784;28;20179;-82
2023/12/26 02:04:01;;;;;;;7.90;4.78;;;0.10;99.90;;;;;;5051883;28;20025;-82
2023/12/26 02:06:30;;;;;;;8.02;4.70;;;0.00;99.90;;;;;;5052663;28;20033;-81
2023/12/26 02:08:56;;;;;;;6.70;4.50;;;0.10;99.90;;;;;;5035570;28;20029;-81
2023/12/26 02:11:22;;;;;;;10.15;6.35;;;0.00;99.90;;;;;;5051985;28;20055;-81
2023/12/26 02:13:51;;;;;;;7.55;4.75;;;0.00;99.90;;;;;;5035468;28;20516;-81
2023/12/26 02:16:21;;;;;;;12.60;6.43;;;0.00;99.90;;;;;;5052721;28;20028;-81
2023/12/26 02:18:47;;;;;;;10.63;6.35;;;0.00;99.90;;;;;;5055640;28;20056;-81
2023/12/26 02:21:13;;;;;;;10.20;5.95;;;0.00;99.90;;;;;;5055581;28;20057;-81
2023/12/26 02:23:40;;;;;;;11.80;6.38;;;-0.10;99.90;;;;;;5055442;28;20032;-81
2023/12/26 02:26:07;;;;;;;10.25;5.90;;;0.00;99.90;;;;;;5055788;28;20473;-81
2023/12/26 02:28:34;;;;;;;10.80;5.97;;;-0.10;99.90;;;;;;5038919;28;20083;-81
2023/12/26 02:31:04;;;;;;;10.73;6.65;;;-0.10;99.90;;;;;;5055353;28;20132;-81
2023/12/26 02:33:30;;;;;;;12.88;5.82;;;-0.10;99.90;;;;;;5055464;28;20035;-81
2023/12/26 02:35:58;;;;;;;8.80;5.15;;;-0.10;99.90;;;;;;5055323;28;20029;-81
2023/12/26 02:38:24;;;;;;;9.02;5.57;;;-0.10;99.90;;;;;;5039036;28;20079;-81
2023/12/26 02:40:52;;;;;;;7.53;4.55;;;-0.10;99.90;;;;;;5055581;28;20017;-81
2023/12/26 02:43:26;;;;;;;9.68;5.25;;;-0.10;99.90;;;;;;5022600;28;20036;-81
2023/12/26 02:45:52;;;;;;;9.50;4.90;;;-0.20;99.90;;;;;;5055050;28;20025;-81
2023/12/26 02:48:18;;;;;;;9.20;5.05;;;-0.20;99.90;;;;;;5038739;28;20029;-82
2023/12/26 02:50:45;;;;;;;8.88;5.20;;;-0.20;99.90;;;;;;5022709;28;20059;-81
2023/12/26 02:53:11;;;;;;;10.18;5.30;;;-0.20;99.90;;;;;;5039321;28;20033;-82
2023/12/26 02:55:37;;;;;;;9.18;5.00;;;-0.20;99.90;;;;;;5057244;28;20055;-82
2023/12/26 02:58:02;;;;;;;10.65;6.00;;;-0.20;99.90;;;;;;5038847;28;20086;-82
2023/12/26 03:00:28;;;;;;;9.15;5.18;;;-0.20;99.90;;;;;;5055718;28;20029;-82
2023/12/26 03:02:54;;;;;;;8.75;4.80;;;-0.20;99.90;;;;;;5038914;28;20025;-82
2023/12/26 03:05:20;;;;;;;7.90;4.68;;;-0.20;99.90;;;;;;5055497;28;20071;-82
2023/12/26 03:07:45;;;;;;;8.30;4.43;;;-0.20;99.90;;;;;;5038650;28;20055;-82
2023/12/26 03:10:11;;;;;;;7.97;4.82;;;-0.20;99.90;;;;;;5055364;28;20032;-82
2023/12/26 03:12:37;;;;;;;10.35;6.10;;;-0.30;99.90;;;;;;5055188;28;20374;-82
2023/12/26 03:15:03;;;;;;;9.70;5.28;;;-0.30;99.90;;;;;;5071981;28;20044;-82
2023/12/26 03:17:29;;;;;;;12.18;6.60;;;-0.40;99.90;;;;;;5055295;28;20037;-82
2023/12/26 03:19:55;;;;;;;15.13;8.32;;;-0.40;99.90;;;;;;5055542;28;20025;-82
2023/12/26 03:22:21;;;;;;;15.77;8.63;;;-0.30;99.90;;;;;;5072280;28;20036;-82
2023/12/26 03:24:47;;;;;;;18.05;9.82;;;-0.30;99.90;;;;;;5072150;28;20401;-82
2023/12/26 03:27:14;;;;;;;18.55;9.65;;;-0.30;99.90;;;;;;5071410;28;20036;-82
2023/12/26 03:29:40;;;;;;;14.93;7.50;;;-0.20;99.90;;;;;;5054942;28;20036;-82
2023/12/26 03:32:08;;;;;;;15.48;7.40;;;-0.20;99.90;;;;;;5056658;28;20031;-81
2023/12/26 03:34:33;;;;;;;12.57;6.60;;;-0.20;99.90;;;;;;5055874;28;20361;-82
2023/12/26 03:36:59;;;;;;;12.50;6.00;;;-0.20;99.90;;;;;;5071449;28;20028;-82
2023/12/26 03:39:25;;;;;;;12.02;6.88;;;-0.20;99.90;;;;;;5054912;28;20442;-82
2023/12/26 03:41:50;;;;;;;10.43;6.30;;;-0.20;99.90;;;;;;5071628;28;20025;-81
2023/12/26 03:44:16;;;;;;;9.63;6.03;;;-0.20;99.90;;;;;;5071480;28;20440;-81
2023/12/26 03:46:43;;;;;;;10.35;6.10;;;-0.20;99.90;;;;;;5054741;28;20029;-82
2023/12/26 03:49:09;;;;;;;10.35;5.32;;;-0.20;99.90;;;;;;5038173;28;20029;-82
2023/12/26 03:51:34;;;;;;;10.10;5.57;;;-0.20;99.90;;;;;;5037940;28;20025;-81
2023/12/26 03:54:01;;;;;;;8.27;4.80;;;-0.20;99.90;;;;;;5037997;28;20043;-82
2023/12/26 03:56:31;;;;;;;7.80;5.22;;;-0.20;99.90;;;;;;5056005;28;20025;-82
2023/12/26 03:58:57;;;;;;;9.82;4.85;;;-0.20;99.90;;;;;;5055851;28;20017;-81
2023/12/26 04:01:23;;;;;;;9.48;5.18;;;-0.20;99.90;;;;;;5054551;28;20017;-81
2023/12/26 04:03:49;;;;;;;9.77;5.47;;;-0.20;99.90;;;;;;5055943;28;20393;-81
2023/12/26 04:06:15;;;;;;;8.60;4.82;;;-0.20;99.90;;;;;;5056282;28;20050;-81
2023/12/26 04:08:42;;;;;;;9.43;5.68;;;-0.20;99.90;;;;;;5038046;28;20096;-81
2023/12/26 04:11:09;;;;;;;10.10;5.65;;;-0.20;99.90;;;;;;5055848;28;20016;-82
2023/12/26 04:13:35;;;;;;;10.45;5.78;;;-0.20;99.90;;;;;;5055243;28;20021;-82
2023/12/26 04:16:01;;;;;;;9.20;4.90;;;-0.20;99.90;;;;;;5054086;28;20036;-82
2023/12/26 04:18:26;;;;;;;8.10;5.22;;;-0.20;99.90;;;;;;5054755;28;20052;-82
2023/12/26 04:20:52;;;;;;;9.35;5.60;;;-0.20;99.90;;;;;;5055255;28;20029;-82
2023/12/26 04:23:18;;;;;;;11.60;5.72;;;-0.20;99.90;;;;;;5053299;28;20037;-82
2023/12/26 04:25:44;;;;;;;9.20;5.55;;;-0.20;99.90;;;;;;5036639;28;20115;-82
2023/12/26 04:28:10;;;;;;;11.00;5.47;;;-0.30;99.90;;;;;;5036635;28;20040;-82
2023/12/26 04:30:36;;;;;;;10.20;4.97;;;-0.30;99.90;;;;;;5054661;28;20036;-82
2023/12/26 04:33:02;;;;;;;9.75;5.03;;;-0.30;99.90;;;;;;5036847;28;20036;-82
2023/12/26 04:35:28;;;;;;;10.27;5.90;;;-0.40;99.90;;;;;;5054489;28;20551;-82
2023/12/26 04:37:54;;;;;;;8.63;5.20;;;-0.40;99.90;;;;;;5054399;28;20026;-82
2023/12/26 04:40:19;;;;;;;9.82;5.90;;;-0.40;99.90;;;;;;5054375;28;20025;-82
2023/12/26 04:42:45;;;;;;;9.90;5.78;;;-0.30;99.90;;;;;;5053990;28;20098;-82
2023/12/26 04:45:12;;;;;;;50.80;19.70;;;-0.30;99.90;;;;;;5036979;28;20183;-82
2023/12/26 04:47:38;;;;;;;75.18;32.67;;;-0.30;99.90;;;;;;5053777;28;20397;-82
2023/12/26 04:50:04;;;;;;;48.03;23.92;;;-0.30;99.90;;;;;;5053535;28;20025;-82
2023/12/26 04:52:30;;;;;;;35.83;18.85;;;-0.30;99.90;;;;;;5053497;28;20033;-82
2023/12/26 04:54:56;;;;;;;29.83;15.25;;;-0.30;99.90;;;;;;5053685;28;20033;-82
2023/12/26 04:57:22;;;;;;;14.80;9.00;;;-0.30;99.90;;;;;;5053614;28;20035;-82
2023/12/26 04:59:48;;;;;;;13.32;7.32;;;-0.40;99.90;;;;;;5053285;28;20029;-82
2023/12/26 05:02:13;;;;;;;15.18;7.75;;;-0.40;99.90;;;;;;5053593;28;20035;-82
2023/12/26 05:04:39;;;;;;;10.80;6.93;;;-0.40;99.90;;;;;;5036590;28;20029;-82
2023/12/26 05:07:05;;;;;;;11.65;6.07;;;-0.40;99.90;;;;;;5053463;28;20044;-82
2023/12/26 05:09:30;;;;;;;10.75;5.80;;;-0.40;99.90;;;;;;5054019;28;20044;-82
2023/12/26 05:11:56;;;;;;;8.57;5.10;;;-0.40;99.90;;;;;;5053330;28;20029;-82
2023/12/26 05:14:22;;;;;;;10.73;6.22;;;-0.30;99.90;;;;;;5036908;28;20124;-82
2023/12/26 05:16:48;;;;;;;10.40;6.20;;;-0.40;99.90;;;;;;5053566;28;20389;-82
2023/12/26 05:19:15;;;;;;;11.85;6.38;;;-0.50;99.90;;;;;;5053116;28;20025;-82
2023/12/26 05:21:40;;;;;;;10.27;5.72;;;-0.50;99.90;;;;;;5053348;28;20190;-82
2023/12/26 05:24:06;;;;;;;11.18;6.25;;;-0.50;99.90;;;;;;5054368;28;20107;-82
2023/12/26 05:26:43;;;;;;;10.68;5.75;;;-0.50;99.90;;;;;;5036787;28;20021;-82
2023/12/26 05:29:10;;;;;;;9.48;4.78;;;-0.40;99.90;;;;;;5055142;28;20028;-82
2023/12/26 05:31:36;;;;;;;6.30;4.10;;;-0.40;99.90;;;;;;5056304;28;20021;-82
2023/12/26 05:34:03;;;;;;;8.68;4.30;;;-0.40;99.90;;;;;;5054707;28;20440;-82
2023/12/26 05:36:29;;;;;;;6.65;3.50;;;-0.40;99.90;;;;;;5054810;28;20025;-82
2023/12/26 05:38:55;;;;;;;5.88;3.20;;;-0.40;99.90;;;;;;5055532;28;20023;-82
2023/12/26 05:41:20;;;;;;;6.00;3.35;;;-0.40;99.90;;;;;;5055923;28;20061;-82
2023/12/26 05:43:47;;;;;;;4.80;2.85;;;-0.30;99.90;;;;;;5021825;28;20021;-82
2023/12/26 05:46:12;;;;;;;4.75;3.00;;;-0.40;99.90;;;;;;5055260;28;20021;-82
2023/12/26 05:48:42;;;;;;;6.25;3.22;;;-0.30;99.90;;;;;;5037044;28;20040;-82
2023/12/26 05:51:07;;;;;;;5.55;3.17;;;-0.30;99.90;;;;;;5054240;28;20036;-82
2023/12/26 05:53:33;;;;;;;7.70;3.30;;;-0.40;99.90;;;;;;5058720;28;20037;-82
2023/12/26 05:55:59;;;;;;;5.68;2.95;;;-0.40;99.90;;;;;;5057216;28;20036;-82
2023/12/26 05:58:25;;;;;;;5.78;2.80;;;-0.40;99.90;;;;;;5039998;28;20029;-82
2023/12/26 06:00:52;;;;;;;4.68;2.80;;;-0.30;99.90;;;;;;5039799;28;20025;-81
2023/12/26 06:03:17;;;;;;;8.43;5.93;;;-0.30;99.90;;;;;;5040152;28;20029;-81
2023/12/26 06:05:43;;;;;;;8.27;4.90;;;-0.40;99.90;;;;;;5057876;28;20032;-80
2023/12/26 06:08:09;;;;;;;21.52;12.18;;;-0.40;99.90;;;;;;5057693;28;20072;-80
2023/12/26 06:10:35;;;;;;;15.77;10.30;;;-0.40;99.90;;;;;;5058362;28;20150;-81
2023/12/26 06:13:00;;;;;;;14.32;9.27;;;-0.50;99.90;;;;;;5039909;28;20036;-80
2023/12/26 06:15:26;;;;;;;17.65;10.18;;;-0.50;99.90;;;;;;5039885;28;20033;-80
2023/12/26 06:17:52;;;;;;;21.60;12.20;;;-0.60;99.90;;;;;;5056672;28;20043;-80
2023/12/26 06:20:21;;;;;;;19.63;10.32;;;-0.60;99.90;;;;;;5056459;28;20033;-80
2023/12/26 06:22:47;;;;;;;19.00;9.70;;;-0.50;99.90;;;;;;5055852;28;20026;-80
2023/12/26 06:25:13;;;;;;;12.35;7.32;;;-0.50;99.90;;;;;;5056419;28;20036;-80
2023/12/26 06:27:38;;;;;;;5.50;3.83;;;-0.50;99.90;;;;;;5039091;28;20026;-80
2023/12/26 06:30:05;;;;;;;5.80;3.92;;;-0.50;99.90;;;;;;5055624;28;20032;-81
2023/12/26 06:32:30;;;;;;;6.07;3.72;;;-0.50;99.90;;;;;;5022747;28;20071;-81
2023/12/26 06:34:56;;;;;;;5.80;3.38;;;-0.50;99.90;;;;;;5056945;28;20025;-80
2023/12/26 06:37:22;;;;;;;5.70;3.55;;;-0.60;99.90;;;;;;5056589;28;20052;-80
2023/12/26 06:39:47;;;;;;;5.35;3.42;;;-0.60;99.90;;;;;;5055402;28;20067;-80
2023/12/26 06:42:13;;;;;;;14.50;7.40;;;-0.70;99.90;;;;;;5055289;28;20481;-80
2023/12/26 06:44:40;;;;;;;16.23;8.57;;;-0.70;99.90;;;;;;5056535;28;20478;-81
2023/12/26 06:47:06;;;;;;;12.25;7.28;;;-0.80;99.90;;;;;;5056730;28;20381;-81
2023/12/26 06:49:32;;;;;;;8.55;5.25;;;-0.80;99.90;;;;;;5056426;28;20025;-80
2023/12/26 06:51:59;;;;;;;10.18;5.78;;;-0.80;99.90;;;;;;5057259;28;20034;-80
2023/12/26 06:54:25;;;;;;;8.25;5.47;;;-0.80;99.90;;;;;;5055077;28;20159;-81
2023/12/26 06:56:51;;;;;;;8.73;5.80;;;-0.80;99.90;;;;;;5055158;28;20095;-80
2023/12/26 06:59:17;;;;;;;10.68;5.40;;;-0.70;99.90;;;;;;5054886;28;20035;-81
2023/12/26 07:01:48;;;;;;;10.27;5.45;;;-0.70;99.90;;;;;;5022354;28;20107;-81
2023/12/26 07:04:14;;;;;;;7.95;4.97;;;-0.70;99.90;;;;;;5053781;28;20029;-81
2023/12/26 07:06:40;;;;;;;8.30;5.38;;;-0.70;99.90;;;;;;5055361;28;20025;-81
2023/12/26 07:09:06;;;;;;;9.80;5.35;;;-0.70;99.90;;;;;;5054919;28;20036;-81
2023/12/26 07:11:33;;;;;;;9.50;5.50;;;-0.70;99.90;;;;;;5021961;28;20120;-81
2023/12/26 07:13:58;;;;;;;10.52;6.03;;;-0.70;99.90;;;;;;5054784;28;20037;-81
2023/12/26 07:16:24;;;;;;;8.60;5.68;;;-0.70;99.90;;;;;;5054592;28;20025;-81
2023/12/26 07:18:50;;;;;;;10.90;6.40;;;-0.70;99.90;;;;;;5055090;28;20424;-81
2023/12/26 07:21:17;;;;;;;14.27;6.00;;;-0.70;99.90;;;;;;5054735;28;20080;-81
2023/12/26 07:23:46;;;;;;;14.90;8.02;;;-0.70;99.90;;;;;;5022003;28;20033;-81
2023/12/26 07:26:12;;;;;;;12.93;7.30;;;-0.80;99.90;;;;;;5054956;28;20447;-81
2023/12/26 07:28:38;;;;;;;13.50;7.38;;;-0.80;99.90;;;;;;5037888;28;20055;-81
2023/12/26 07:31:03;;;;;;;11.23;7.18;;;-0.80;99.90;;;;;;5021571;28;20029;-81
2023/12/26 07:33:29;;;;;;;10.60;7.05;;;-0.70;99.90;;;;;;5055864;28;20064;-81
2023/12/26 07:35:57;;;;;;;12.55;7.47;;;-0.70;99.90;;;;;;5055637;28;20486;-81
2023/12/26 07:38:26;;;;;;;10.38;6.20;;;-0.70;99.90;;;;;;5054915;28;20152;-81
2023/12/26 07:40:52;;;;;;;9.73;5.97;;;-0.70;99.90;;;;;;5054882;28;20052;-81
2023/12/26 07:43:17;;;;;;;12.13;7.38;;;-0.60;99.90;;;;;;5054694;28;20470;-81
2023/12/26 07:45:43;;;;;;;14.48;8.18;;;-0.60;99.90;;;;;;5053947;28;20025;-81
2023/12/26 07:48:10;;;;;;;10.75;6.68;;;-0.60;99.90;;;;;;5053902;28;20366;-81
2023/12/26 07:50:36;;;;;;;12.23;7.78;;;-0.50;99.90;;;;;;5053958;28;20040;-81
2023/12/26 07:53:04;;;;;;;8.45;5.90;;;-0.50;99.90;;;;;;5054133;28;20028;-81
2023/12/26 07:55:32;;;;;;;9.30;5.72;;;-0.50;99.90;;;;;;5055188;28;20033;-81
2023/12/26 07:57:57;;;;;;;12.00;6.65;;;-0.40;99.90;;;;;;5053003;28;20017;-82
2023/12/26 08:00:23;;;;;;;14.30;9.05;;;-0.40;99.90;;;;;;5053654;28;20124;-82
2023/12/26 08:02:49;;;;;;;9.73;6.88;;;-0.30;99.90;;;;;;5053967;28;20441;-82
2023/12/26 08:05:15;;;;;;;10.20;6.20;;;-0.30;99.90;;;;;;5037225;28;20036;-81
2023/12/26 08:07:41;;;;;;;9.52;5.72;;;-0.20;99.90;;;;;;5053957;28;20037;-82
2023/12/26 08:10:07;;;;;;;12.75;7.25;;;-0.20;99.90;;;;;;5037656;28;20032;-81
2023/12/26 08:12:33;;;;;;;13.25;6.95;;;-0.20;99.90;;;;;;5053477;28;20032;-81
2023/12/26 08:14:58;;;;;;;12.23;7.35;;;-0.10;99.90;;;;;;5054531;28;20473;-82
2023/12/26 08:17:24;;;;;;;10.43;6.43;;;-0.10;99.90;;;;;;5036769;28;20025;-82
2023/12/26 08:19:50;;;;;;;9.30;5.70;;;0.00;99.90;;;;;;5054830;28;20021;-82
2023/12/26 08:22:16;;;;;;;10.60;5.55;;;0.00;99.90;;;;;;5020272;28;20036;-82
2023/12/26 08:24:42;;;;;;;13.38;8.35;;;0.00;99.90;;;;;;5054688;28;20036;-82
2023/12/26 08:27:08;;;;;;;12.88;7.07;;;0.10;99.90;;;;;;5036880;28;20485;-82
2023/12/26 08:29:33;;;;;;;14.70;8.48;;;0.10;99.90;;;;;;5036513;28;20052;-82
2023/12/26 08:31:59;;;;;;;18.55;10.48;;;0.10;99.90;;;;;;5053134;28;20107;-82
2023/12/26 08:34:25;;;;;;;14.60;8.65;;;0.20;99.90;;;;;;5053014;28;20485;-82
2023/12/26 08:36:51;;;;;;;13.30;7.53;;;0.20;99.90;;;;;;5052944;28;20025;-82
2023/12/26 08:39:17;;;;;;;11.27;6.35;;;0.20;99.90;;;;;;5053241;28;20033;-82
2023/12/26 08:41:43;;;;;;;9.00;5.32;;;0.20;99.90;;;;;;5053244;28;20028;-82
2023/12/26 08:44:10;;;;;;;9.93;5.50;;;0.20;99.90;;;;;;5036438;28;20113;-82
2023/12/26 08:46:35;;;;;;;7.28;4.50;;;0.20;99.90;;;;;;5052927;28;20025;-82
2023/12/26 08:49:03;;;;;;;9.88;4.63;;;0.20;99.90;;;;;;5036386;28;20485;-81
2023/12/26 08:51:28;;;;;;;7.57;4.40;;;0.30;99.90;;;;;;5053170;28;20048;-82
2023/12/26 08:53:55;;;;;;;6.40;4.18;;;0.30;99.90;;;;;;5038198;28;20485;-81
2023/12/26 08:56:23;;;;;;;7.07;4.38;;;0.30;99.90;;;;;;5057784;28;20481;-81
2023/12/26 08:58:49;;;;;;;9.70;5.93;;;0.40;99.90;;;;;;5054818;28;20384;-82
2023/12/26 09:01:14;;;;;;;8.23;5.18;;;0.40;99.90;;;;;;5068988;28;20032;-82
2023/12/26 09:03:41;;;;;;;8.18;5.32;;;0.40;99.90;;;;;;5035860;28;20025;-82
2023/12/26 09:06:12;;;;;;;14.35;8.23;;;0.40;99.90;;;;;;5035926;28;20126;-82
2023/12/26 09:08:39;;;;;;;28.95;12.27;;;0.40;99.90;;;;;;5053977;28;20029;-82
2023/12/26 09:11:04;;;;;;;25.65;13.00;;;0.50;99.90;;;;;;5052565;28;20021;-82
2023/12/26 09:13:30;;;;;;;25.10;11.93;;;0.40;99.90;;;;;;5036304;28;20131;-82
2023/12/26 09:15:58;;;;;;;24.58;12.02;;;0.40;99.90;;;;;;5052515;28;20033;-82
2023/12/26 09:18:24;;;;;;;23.85;12.30;;;0.40;99.90;;;;;;5052335;28;20028;-82
2023/12/26 09:20:50;;;;;;;23.33;12.55;;;0.50;99.90;;;;;;5035674;28;20025;-82
2023/12/26 09:23:15;;;;;;;22.63;11.50;;;0.50;99.90;;;;;;5052313;28;20033;-82
2023/12/26 09:25:41;;;;;;;23.13;11.60;;;0.50;99.90;;;;;;5051557;28;20037;-82
2023/12/26 09:28:08;;;;;;;23.52;12.75;;;0.50;99.90;;;;;;5052230;28;20029;-82
2023/12/26 09:30:34;;;;;;;23.17;12.95;;;0.50;99.90;;;;;;5052011;28;20076;-82
2023/12/26 09:33:00;;;;;;;37.55;19.65;;;0.50;99.90;;;;;;5052292;28;20052;-82
2023/12/26 09:35:26;;;;;;;50.78;27.35;;;0.60;99.90;;;;;;5052027;28;20050;-82
2023/12/26 09:37:51;;;;;;;36.00;20.08;;;0.60;99.90;;;;;;5052153;28;20033;-82
2023/12/26 09:40:18;;;;;;;36.63;19.92;;;0.60;99.90;;;;;;5035452;28;20025;-82
2023/12/26 09:42:44;;;;;;;25.77;13.70;;;0.60;99.90;;;;;;5052527;28;20025;-82
2023/12/26 09:45:13;;;;;;;21.98;12.20;;;0.60;99.90;;;;;;5052411;28;20029;-82
2023/12/26 09:47:42;;;;;;;20.17;11.57;;;0.60;99.90;;;;;;5035550;28;20041;-82
2023/12/26 09:50:09;;;;;;;18.73;11.00;;;0.60;99.90;;;;;;5052022;28;20057;-82
2023/12/26 09:52:41;;;;;;;20.00;11.77;;;0.60;99.90;;;;;;5035877;28;20373;-82
2023/12/26 09:55:07;;;;;;;17.45;10.52;;;0.70;99.90;;;;;;5052398;28;20078;-82
2023/12/26 09:57:33;;;;;;;17.17;11.05;;;0.80;99.90;;;;;;5035659;28;20025;-82
2023/12/26 09:59:59;;;;;;;18.95;11.43;;;0.80;99.90;;;;;;5035240;28;20040;-82
2023/12/26 10:02:25;;;;;;;15.98;9.63;;;0.90;99.90;;;;;;5035718;28;20032;-82
2023/12/26 10:04:51;;;;;;;18.80;10.02;;;1.00;99.90;;;;;;5035358;28;20037;-82
2023/12/26 10:07:18;;;;;;;15.65;9.88;;;1.00;99.90;;;;;;5036173;28;20477;-81
2023/12/26 10:09:44;;;;;;;19.00;9.95;;;1.00;99.90;;;;;;5052321;28;20043;-81
2023/12/26 10:12:10;;;;;;;21.40;12.38;;;1.10;99.90;;;;;;5052914;28;20103;-81
2023/12/26 10:14:36;;;;;;;22.23;11.90;;;1.10;99.90;;;;;;5052062;28;20160;-81
2023/12/26 10:17:03;;;;;;;18.35;11.93;;;1.10;99.90;;;;;;5051714;28;20032;-82
2023/12/26 10:19:29;;;;;;;17.27;10.63;;;1.10;99.90;;;;;;5035327;28;20498;-82
2023/12/26 10:21:54;;;;;;;15.98;9.98;;;1.20;99.90;;;;;;5035314;28;20033;-81
2023/12/26 10:24:21;;;;;;;16.80;10.70;;;1.20;99.90;;;;;;5051883;28;20452;-81
2023/12/26 10:26:47;;;;;;;23.50;14.05;;;1.20;99.90;;;;;;5035165;28;20029;-81
2023/12/26 10:29:14;;;;;;;22.27;12.38;;;1.20;99.90;;;;;;5052888;28;20029;-81
2023/12/26 10:31:41;;;;;;;22.27;12.10;;;1.20;99.90;;;;;;5035104;28;20033;-82
2023/12/26 10:34:20;;;;;;;19.52;11.43;;;1.20;99.90;;;;;;5051602;28;20040;-82
2023/12/26 10:36:47;;;;;;;20.65;11.52;;;1.20;99.90;;;;;;5052154;28;20056;-82
2023/12/26 10:39:13;;;;;;;17.67;10.65;;;1.20;99.90;;;;;;5056604;28;20025;-82
2023/12/26 10:41:49;;;;;;;15.32;9.23;;;1.30;99.90;;;;;;5055440;28;20028;-81
2023/12/26 10:44:16;;;;;;;10.02;6.72;;;1.30;99.90;;;;;;5055450;28;20112;-81
2023/12/26 10:46:43;;;;;;;11.30;6.18;;;1.30;99.90;;;;;;5055174;28;20052;-82
2023/12/26 10:49:20;;;;;;;11.35;6.80;;;1.30;99.90;;;;;;5071798;28;20029;-82
2023/12/26 10:51:51;;;;;;;10.98;7.15;;;1.40;99.90;;;;;;5055204;28;20027;-82
2023/12/26 10:54:25;;;;;;;12.27;7.43;;;1.40;99.90;;;;;;5055012;28;20052;-82
2023/12/26 10:56:52;;;;;;;13.30;7.75;;;1.40;99.90;;;;;;5055205;28;20029;-82
2023/12/26 13:51:27;;;;;;;;;;;3.40;99.90;;;;;;5034393;28;20064;-82
2023/12/26 13:54:30;;;;;;;15.52;8.48;;;3.40;99.90;;;;;;5033281;28;19905;-82
2023/12/26 13:57:33;;;;;;;13.27;7.60;;;3.40;99.90;;;;;;5032122;28;20033;-82
2023/12/26 14:00:36;;;;;;;12.50;7.43;;;3.40;99.90;;;;;;5032083;28;20029;-83
2023/12/26 14:03:41;;;;;;;10.98;6.57;;;3.40;99.90;;;;;;5032105;28;20095;-83
2023/12/26 14:06:46;;;;;;;15.32;8.60;;;3.40;99.90;;;;;;5033311;28;20013;-83
2023/12/26 14:09:49;;;;;;;14.55;8.43;;;3.50;99.90;;;;;;5033575;28;20079;-83
2023/12/26 14:12:53;;;;;;;13.55;7.68;;;3.50;99.90;;;;;;5032879;28;20021;-84
2023/12/26 14:15:56;;;;;;;10.90;6.95;;;3.50;99.90;;;;;;5036373;28;20029;-83
2023/12/26 14:18:59;;;;;;;19.02;10.98;;;3.50;99.90;;;;;;5037937;28;20025;-83
2023/12/26 14:22:02;;;;;;;18.42;9.93;;;3.50;99.90;;;;;;5035774;28;20029;-83
2023/12/26 14:25:06;;;;;;;12.73;7.88;;;3.50;99.90;;;;;;5037009;28;20049;-83
2023/12/26 14:28:09;;;;;;;12.75;7.38;;;3.50;99.90;;;;;;5035421;28;20437;-84
2023/12/26 14:31:12;;;;;;;13.70;7.72;;;3.40;99.90;;;;;;5035327;28;20393;-84
2023/12/26 14:34:15;;;;;;;12.90;7.72;;;3.40;99.90;;;;;;5036683;28;20021;-81
2023/12/26 14:37:18;;;;;;;12.23;7.90;;;3.30;99.90;;;;;;5036751;28;20061;-84
2023/12/26 14:40:22;;;;;;;15.20;9.27;;;3.30;99.90;;;;;;5036492;28;20025;-83
2023/12/26 14:43:32;;;;;;;21.58;12.60;;;3.30;99.90;;;;;;5036792;28;20034;-82
2023/12/26 14:46:35;;;;;;;18.17;10.82;;;3.20;99.90;;;;;;5035178;28;20375;-82
2023/12/26 14:49:38;;;;;;;19.17;11.77;;;3.20;99.90;;;;;;5035267;28;20482;-82
2023/12/26 14:52:41;;;;;;;18.10;10.85;;;3.10;99.90;;;;;;5036879;28;20073;-82
2023/12/26 14:55:45;;;;;;;20.60;12.82;;;3.00;99.90;;;;;;5055060;28;20531;-82
2023/12/26 14:58:48;;;;;;;19.70;11.93;;;3.00;99.90;;;;;;5055026;28;20032;-82
2023/12/26 15:01:51;;;;;;;14.60;8.02;;;2.90;99.90;;;;;;5056102;28;20095;-82
2023/12/26 15:04:16;;;;;;;14.27;8.52;;;2.90;99.90;;;;;;5054921;28;20021;-82
2023/12/26 15:06:42;;;;;;;17.15;9.35;;;2.80;99.90;;;;;;5038242;28;20397;-82
2023/12/26 15:09:12;;;;;;;13.48;8.35;;;2.80;99.90;;;;;;5038171;28;20142;-82
2023/12/26 15:11:38;;;;;;;15.50;9.88;;;2.70;99.90;;;;;;5038889;28;20021;-82
2023/12/26 15:14:03;;;;;;;24.17;15.18;;;2.60;99.90;;;;;;5038680;28;20028;-82
2023/12/26 15:16:29;;;;;;;21.70;13.40;;;2.60;99.90;;;;;;5037925;28;20040;-82
2023/12/26 15:18:55;;;;;;;21.90;12.85;;;2.50;99.90;;;;;;5038249;28;20020;-82
2023/12/26 15:21:21;;;;;;;19.30;12.15;;;2.50;99.90;;;;;;5055796;28;20025;-82
2023/12/26 15:23:51;;;;;;;20.17;13.95;;;2.40;99.90;;;;;;5036661;28;20052;-82
2023/12/26 15:26:16;;;;;;;18.40;12.35;;;2.40;99.90;;;;;;5038515;28;20029;-82
2023/12/26 15:28:43;;;;;;;17.98;11.75;;;2.30;99.90;;;;;;5055027;28;20025;-82
2023/12/26 15:31:18;;;;;;;41.70;18.50;;;2.20;99.90;;;;;;5054351;28;20112;-82
2023/12/26 15:33:48;;;;;;;42.80;20.23;;;2.20;99.90;;;;;;5038014;28;20505;-82
2023/12/26 15:36:17;;;;;;;28.45;14.40;;;2.10;99.90;;;;;;5054098;28;20044;-82
2023/12/26 15:38:44;;;;;;;23.52;13.32;;;2.10;99.90;;;;;;5054197;28;20021;-82
2023/12/26 15:41:09;;;;;;;22.35;12.80;;;2.00;99.90;;;;;;5037687;28;20117;-81
2023/12/26 15:43:35;;;;;;;18.95;11.30;;;2.00;99.90;;;;;;5056293;28;20049;-81
2023/12/26 15:46:01;;;;;;;24.60;12.20;;;2.00;99.90;;;;;;5055305;28;20112;-81